createdAt,value
2022-11-28T00:01:27.425Z,6.57
2022-11-28T00:04:17.640Z,6.55
2022-11-28T00:07:08.119Z,6.47
2022-11-28T00:09:58.487Z,6.82
2022-11-28T00:12:48.479Z,6.50
2022-11-28T00:15:38.713Z,7.03
2022-11-28T00:18:29.625Z,6.90
2022-11-28T00:21:20.876Z,6.82
2022-11-28T00:24:10.830Z,6.65
2022-11-28T00:27:00.729Z,6.90
2022-11-28T00:29:50.717Z,6.80
2022-11-28T00:32:40.627Z,7.95
2022-11-28T00:35:30.652Z,7.28
2022-11-28T00:38:20.530Z,7.57
2022-11-28T00:41:14.010Z,7.30
2022-11-28T00:44:04.142Z,7.47
2022-11-28T00:46:53.978Z,7.68
2022-11-28T00:49:43.963Z,7.43
2022-11-28T00:52:34.300Z,7.47
2022-11-28T00:55:24.180Z,7.43
2022-11-28T00:58:14.059Z,6.85
2022-11-28T01:01:14.440Z,7.40
2022-11-28T01:04:06.774Z,6.97
2022-11-28T01:06:57.699Z,7.53
2022-11-28T01:09:47.781Z,8.02
2022-11-28T01:12:37.965Z,7.30
2022-11-28T01:15:28.212Z,6.38
2022-11-28T01:18:18.327Z,7.60
2022-11-28T01:21:08.461Z,7.80
2022-11-28T01:23:58.782Z,6.97
2022-11-28T01:26:49.112Z,7.18
2022-11-28T01:29:38.806Z,6.95
2022-11-28T01:32:28.688Z,7.20
2022-11-28T01:35:18.935Z,7.10
2022-11-28T01:38:09.058Z,7.65
2022-11-28T01:40:59.316Z,7.35
2022-11-28T01:43:59.198Z,6.97
2022-11-28T01:46:49.014Z,6.60
2022-11-28T01:49:39.556Z,7.20
2022-11-28T01:52:29.784Z,7.18
2022-11-28T01:55:23.842Z,7.63
2022-11-28T01:58:14.565Z,7.90
2022-11-28T02:01:05.407Z,6.93
2022-11-28T02:03:57.905Z,8.13
2022-11-28T02:06:47.865Z,8.20
2022-11-28T02:09:39.010Z,7.43
2022-11-28T02:12:50.463Z,8.05
2022-11-28T02:16:09.142Z,7.70
2022-11-28T02:19:20.739Z,6.53
2022-11-28T02:22:25.285Z,7.15
2022-11-28T02:25:26.823Z,8.00
2022-11-28T02:28:38.267Z,6.57
2022-11-28T02:32:07.295Z,6.68
2022-11-28T02:35:18.541Z,6.72
2022-11-28T02:38:40.297Z,6.18
2022-11-28T02:41:51.454Z,6.35
2022-11-28T02:44:57.550Z,6.45
2022-11-28T02:47:54.504Z,6.60
2022-11-28T02:50:54.375Z,6.72
2022-11-28T02:53:45.800Z,7.13
2022-11-28T02:56:36.305Z,7.18
2022-11-28T02:59:38.183Z,6.47
2022-11-28T03:02:30.902Z,6.78
2022-11-28T03:05:28.620Z,6.88
2022-11-28T03:08:58.670Z,7.68
2022-11-28T03:12:24.751Z,6.93
2022-11-28T03:15:20.024Z,6.43
2022-11-28T03:18:21.670Z,7.47
2022-11-28T03:21:24.279Z,7.13
2022-11-28T03:24:32.910Z,7.07
2022-11-28T03:27:34.939Z,6.53
2022-11-28T03:30:36.570Z,6.63
2022-11-28T03:33:32.041Z,6.82
2022-11-28T03:36:27.420Z,6.85
2022-11-28T03:39:26.368Z,6.53
2022-11-28T03:42:22.419Z,7.05
2022-11-28T03:45:17.588Z,6.90
2022-11-28T03:48:20.523Z,6.72
2022-11-28T03:51:21.943Z,6.45
2022-11-28T03:54:28.811Z,7.10
2022-11-28T03:57:31.576Z,6.85
2022-11-28T04:00:22.283Z,6.47
2022-11-28T04:03:21.227Z,6.60
2022-11-28T04:06:34.454Z,6.43
2022-11-28T04:09:39.772Z,7.10
2022-11-28T04:12:48.001Z,6.85
2022-11-28T04:15:57.203Z,6.35
2022-11-28T04:19:05.986Z,6.45
2022-11-28T04:22:03.274Z,6.65
2022-11-28T04:24:57.834Z,6.53
2022-11-28T04:27:53.148Z,7.25
2022-11-28T04:30:46.491Z,7.28
2022-11-28T04:33:42.166Z,6.30
2022-11-28T04:36:36.711Z,6.80
2022-11-28T04:39:28.514Z,6.97
2022-11-28T04:42:23.391Z,7.07
2022-11-28T04:45:22.421Z,6.60
2022-11-28T04:48:12.577Z,6.25
2022-11-28T04:51:16.805Z,6.25
2022-11-28T04:54:15.107Z,6.57
2022-11-28T04:57:27.193Z,6.63
2022-11-28T05:00:20.078Z,7.03
2022-11-28T05:03:10.881Z,6.78
2022-11-28T05:06:01.989Z,6.95
2022-11-28T05:08:51.915Z,6.72
2022-11-28T05:11:42.004Z,6.43
2022-11-28T05:14:32.117Z,6.22
2022-11-28T05:17:22.332Z,6.68
2022-11-28T05:20:13.408Z,6.75
2022-11-28T05:23:03.606Z,6.72
2022-11-28T05:25:53.752Z,7.05
2022-11-28T05:28:45.533Z,8.80
2022-11-28T05:31:37.412Z,8.95
2022-11-28T05:34:27.465Z,8.05
2022-11-28T05:37:17.450Z,6.60
2022-11-28T05:40:07.953Z,6.60
2022-11-28T05:42:58.075Z,6.93
2022-11-28T05:45:47.965Z,6.40
2022-11-28T05:48:38.147Z,6.70
2022-11-28T05:51:28.286Z,7.50
2022-11-28T05:54:18.178Z,7.43
2022-11-28T05:57:08.252Z,7.75
2022-11-28T05:59:58.471Z,7.68
2022-11-28T06:02:48.315Z,8.18
2022-11-28T06:05:43.213Z,9.20
2022-11-28T06:08:33.613Z,8.60
2022-11-28T06:11:25.933Z,8.30
2022-11-28T06:14:15.853Z,8.68
2022-11-28T06:17:06.230Z,7.90
2022-11-28T06:19:56.234Z,8.30
2022-11-28T06:22:47.048Z,8.50
2022-11-28T06:25:36.986Z,7.97
2022-11-28T06:28:27.384Z,7.80
2022-11-28T06:31:23.111Z,7.80
2022-11-28T06:34:13.660Z,8.43
2022-11-28T06:37:03.882Z,8.13
2022-11-28T06:39:55.222Z,7.78
2022-11-28T06:42:45.387Z,8.18
2022-11-28T06:45:35.396Z,7.57
2022-11-28T06:48:26.123Z,7.15
2022-11-28T06:51:17.055Z,7.53
2022-11-28T06:54:07.086Z,6.90
2022-11-28T06:56:57.287Z,7.72
2022-11-28T06:59:48.493Z,7.50
2022-11-28T07:02:38.508Z,7.78
2022-11-28T07:05:30.941Z,6.97
2022-11-28T07:08:20.841Z,7.60
2022-11-28T07:11:31.732Z,7.25
2022-11-28T07:14:22.129Z,7.97
2022-11-28T07:17:12.342Z,7.80
2022-11-28T07:20:02.448Z,8.07
2022-11-28T07:22:52.391Z,7.95
2022-11-28T07:25:42.502Z,7.97
2022-11-28T07:28:34.623Z,8.40
2022-11-28T07:31:27.739Z,7.60
2022-11-28T07:34:17.914Z,11.82
2022-11-28T07:37:07.983Z,10.70
2022-11-28T07:39:58.103Z,9.25
2022-11-28T07:42:48.816Z,10.05
2022-11-28T07:45:59.462Z,9.88
2022-11-28T07:48:50.253Z,10.02
2022-11-28T07:51:40.778Z,9.98
2022-11-28T07:54:30.740Z,9.77
2022-11-28T07:57:20.682Z,8.77
2022-11-28T08:00:11.284Z,7.63
2022-11-28T08:03:04.271Z,8.68
2022-11-28T08:06:01.719Z,8.98
2022-11-28T08:08:55.411Z,8.32
2022-11-28T08:11:45.610Z,8.68
2022-11-28T08:14:35.731Z,9.65
2022-11-28T08:17:26.030Z,9.13
2022-11-28T08:20:15.982Z,9.32
2022-11-28T08:23:05.956Z,9.07
2022-11-28T08:25:55.842Z,9.80
2022-11-28T08:28:46.594Z,9.48
2022-11-28T08:31:38.365Z,9.60
2022-11-28T08:34:28.320Z,9.65
2022-11-28T08:37:18.319Z,9.68
2022-11-28T08:40:08.725Z,9.65
2022-11-28T08:42:58.985Z,8.52
2022-11-28T08:45:49.056Z,8.30
2022-11-28T08:48:40.015Z,9.95
2022-11-28T08:51:30.198Z,8.93
2022-11-28T08:54:20.891Z,8.52
2022-11-28T08:57:10.866Z,8.63
2022-11-28T09:00:00.698Z,8.77
2022-11-28T09:02:50.694Z,8.65
2022-11-28T09:05:41.064Z,8.90
2022-11-28T09:08:30.952Z,8.65
2022-11-28T09:11:22.699Z,8.68
2022-11-28T09:14:12.741Z,9.23
2022-11-28T09:17:03.020Z,9.75
2022-11-28T09:19:53.404Z,10.25
2022-11-28T09:22:43.659Z,10.45
2022-11-28T09:25:40.015Z,10.57
2022-11-28T09:28:30.184Z,10.23
2022-11-28T09:31:20.486Z,9.45
2022-11-28T09:34:11.016Z,9.48
2022-11-28T09:37:04.872Z,10.50
2022-11-28T09:40:12.734Z,10.00
2022-11-28T09:43:11.995Z,9.07
2022-11-28T09:46:06.078Z,9.27
2022-11-28T09:51:55.614Z,10.17
2022-11-28T09:55:00.768Z,9.15
2022-11-28T09:57:53.495Z,10.68
2022-11-28T10:00:55.767Z,10.32
2022-11-28T10:03:52.178Z,11.68
2022-11-28T10:06:58.541Z,11.27
2022-11-28T10:10:13.692Z,9.32
2022-11-28T10:13:20.597Z,9.40
2022-11-28T10:16:42.993Z,8.90
2022-11-28T10:19:56.973Z,8.68
2022-11-28T10:22:53.139Z,8.30
2022-11-28T10:25:50.581Z,13.65
2022-11-28T10:28:43.854Z,13.80
2022-11-28T10:31:44.144Z,9.32
2022-11-28T10:34:43.589Z,8.88
2022-11-28T10:37:37.099Z,8.25
2022-11-28T10:40:38.685Z,8.98
2022-11-28T10:43:57.474Z,8.98
2022-11-28T10:47:14.873Z,8.95
2022-11-28T10:50:32.481Z,9.13
2022-11-28T10:53:55.051Z,8.68
2022-11-28T10:57:03.213Z,7.25
2022-11-28T11:00:13.254Z,7.40
2022-11-28T11:03:05.956Z,7.45
2022-11-28T11:05:55.907Z,7.78
2022-11-28T11:08:48.028Z,7.40
2022-11-28T11:11:50.443Z,7.10
2022-11-28T11:14:40.650Z,6.90
2022-11-28T11:17:41.160Z,7.75
2022-11-28T11:20:38.556Z,7.05
2022-11-28T11:23:32.818Z,8.15
2022-11-28T11:26:36.378Z,7.68
2022-11-28T11:29:31.900Z,7.45
2022-11-28T11:32:27.848Z,7.97
2022-11-28T11:35:23.265Z,7.60
2022-11-28T11:38:22.402Z,7.70
2022-11-28T11:41:29.756Z,7.28
2022-11-28T11:44:20.556Z,7.57
2022-11-28T11:47:11.001Z,7.95
2022-11-28T11:50:05.854Z,7.85
2022-11-28T11:53:14.032Z,8.32
2022-11-28T11:56:04.366Z,8.70
2022-11-28T11:58:58.406Z,8.73
2022-11-28T12:01:52.731Z,8.02
2022-11-28T12:04:53.885Z,7.95
2022-11-28T12:08:01.049Z,8.18
2022-11-28T12:11:33.633Z,8.30
2022-11-28T12:14:38.228Z,8.88
2022-11-28T12:17:58.354Z,8.40
2022-11-28T12:20:53.973Z,8.90
2022-11-28T12:24:06.297Z,9.15
2022-11-28T12:27:29.282Z,8.85
2022-11-28T12:30:33.424Z,8.15
2022-11-28T12:33:37.292Z,8.32
2022-11-28T12:39:56.175Z,11.90
2022-11-28T12:43:21.963Z,11.80
2022-11-28T12:46:30.443Z,9.23
2022-11-28T12:49:34.140Z,8.60
2022-11-28T12:52:43.301Z,8.30
2022-11-28T12:55:48.993Z,8.45
2022-11-28T12:58:45.988Z,9.05
2022-11-28T13:02:18.917Z,7.82
2022-11-28T13:05:27.217Z,8.80
2022-11-28T13:08:48.535Z,8.55
2022-11-28T13:11:57.488Z,8.15
2022-11-28T13:15:00.445Z,8.00
2022-11-28T13:17:56.822Z,8.20
2022-11-28T13:21:02.736Z,9.27
2022-11-28T13:24:32.904Z,8.55
2022-11-28T13:27:37.488Z,7.57
2022-11-28T13:30:32.496Z,8.15
2022-11-28T13:33:49.169Z,7.93
2022-11-28T13:40:18.281Z,7.50
2022-11-28T13:43:46.429Z,7.57
2022-11-28T13:46:37.035Z,7.65
2022-11-28T13:49:29.503Z,7.03
2022-11-28T13:52:20.073Z,8.35
2022-11-28T13:55:35.888Z,6.80
2022-11-28T13:58:31.396Z,7.68
2022-11-28T14:01:24.155Z,9.15
2022-11-28T14:04:17.863Z,7.78
2022-11-28T14:07:07.913Z,8.20
2022-11-28T14:10:05.226Z,9.25
2022-11-28T14:13:26.608Z,8.57
2022-11-28T14:16:38.088Z,9.55
2022-11-28T14:19:28.366Z,9.10
2022-11-28T14:22:43.993Z,8.70
2022-11-28T14:25:41.388Z,8.75
2022-11-28T14:28:38.171Z,9.13
2022-11-28T14:31:38.313Z,9.27
2022-11-28T14:34:44.394Z,9.05
2022-11-28T14:37:52.055Z,8.55
2022-11-28T14:41:05.606Z,9.57
2022-11-28T14:44:34.316Z,9.75
2022-11-28T14:47:26.552Z,8.75
2022-11-28T14:50:18.094Z,8.55
2022-11-28T14:53:34.038Z,8.50
2022-11-28T14:56:27.869Z,8.48
2022-11-28T14:59:21.246Z,8.57
2022-11-28T15:02:11.492Z,8.02
2022-11-28T15:05:30.841Z,8.75
2022-11-28T15:08:46.982Z,8.35
2022-11-28T15:12:08.436Z,9.07
2022-11-28T15:15:01.706Z,7.75
2022-11-28T15:17:54.575Z,7.25
2022-11-28T15:20:53.766Z,7.82
2022-11-28T15:23:43.783Z,8.38
2022-11-28T15:26:33.901Z,7.60
2022-11-28T15:29:26.839Z,8.23
2022-11-28T15:32:16.843Z,7.53
2022-11-28T15:35:12.532Z,8.07
2022-11-28T15:38:03.293Z,7.80
2022-11-28T15:40:55.651Z,8.90
2022-11-28T15:43:46.371Z,8.50
2022-11-28T15:46:37.190Z,7.78
2022-11-28T15:49:27.715Z,6.93
2022-11-28T15:52:20.760Z,7.93
2022-11-28T15:55:17.717Z,9.23
2022-11-28T15:58:19.231Z,9.15
2022-11-28T16:01:16.933Z,7.45
2022-11-28T16:04:14.177Z,8.60
2022-11-28T16:07:04.239Z,8.75
2022-11-28T16:10:05.692Z,7.93
2022-11-28T16:13:02.153Z,8.20
2022-11-28T16:15:55.928Z,8.25
2022-11-28T16:18:56.117Z,8.70
2022-11-28T16:22:06.800Z,8.30
2022-11-28T16:24:57.069Z,8.45
2022-11-28T16:27:48.906Z,8.25
2022-11-28T16:30:43.511Z,8.82
2022-11-28T16:33:47.955Z,8.20
2022-11-28T16:36:38.862Z,9.38
2022-11-28T16:39:32.520Z,8.93
2022-11-28T16:42:25.301Z,11.15
2022-11-28T16:45:18.845Z,10.15
2022-11-28T16:48:14.826Z,9.80
2022-11-28T16:51:11.429Z,9.82
2022-11-28T16:54:22.156Z,9.93
2022-11-28T16:57:16.386Z,9.15
2022-11-28T17:02:56.706Z,9.38
2022-11-28T17:05:46.767Z,9.68
2022-11-28T17:08:36.704Z,9.20
2022-11-28T17:11:32.572Z,9.98
2022-11-28T17:14:22.925Z,9.60
2022-11-28T17:17:17.524Z,10.10
2022-11-28T17:20:08.358Z,11.10
2022-11-28T17:22:59.028Z,10.18
2022-11-28T17:25:48.901Z,11.23
2022-11-28T17:28:39.854Z,12.52
2022-11-28T17:31:29.940Z,11.00
2022-11-28T17:34:25.205Z,10.45
2022-11-28T17:37:16.469Z,11.20
2022-11-28T17:40:25.655Z,10.63
2022-11-28T17:43:21.915Z,14.85
2022-11-28T17:46:12.510Z,12.32
2022-11-28T17:49:28.899Z,11.25
2022-11-28T17:52:20.042Z,11.05
2022-11-28T17:55:10.273Z,12.02
2022-11-28T17:58:00.733Z,12.98
2022-11-28T18:00:54.934Z,11.30
2022-11-28T18:03:47.437Z,12.90
2022-11-28T18:06:37.959Z,11.73
2022-11-28T18:09:32.080Z,11.38
2022-11-28T18:12:22.093Z,12.13
2022-11-28T18:15:12.484Z,15.35
2022-11-28T18:18:04.373Z,15.15
2022-11-28T18:20:55.544Z,13.18
2022-11-28T18:23:51.998Z,14.60
2022-11-28T18:26:42.004Z,12.75
2022-11-28T18:29:33.535Z,13.15
2022-11-28T18:32:23.630Z,12.90
2022-11-28T18:35:14.308Z,11.85
2022-11-28T18:38:06.169Z,11.85
2022-11-28T18:40:56.466Z,11.63
2022-11-28T18:43:48.211Z,11.38
2022-11-28T18:46:39.229Z,11.52
2022-11-28T18:49:29.510Z,12.60
2022-11-28T18:52:19.596Z,12.05
2022-11-28T18:55:09.820Z,11.40
2022-11-28T18:57:59.822Z,12.43
2022-11-28T19:00:50.102Z,13.25
2022-11-28T19:03:41.698Z,15.43
2022-11-28T19:06:33.940Z,14.15
2022-11-28T19:09:23.902Z,14.45
2022-11-28T19:12:15.607Z,13.95
2022-11-28T19:15:06.249Z,13.80
2022-11-28T19:17:56.422Z,14.13
2022-11-28T19:20:46.780Z,13.43
2022-11-28T19:23:38.623Z,19.17
2022-11-28T19:26:34.061Z,14.70
2022-11-28T19:29:24.254Z,14.57
2022-11-28T19:32:14.594Z,15.05
2022-11-28T19:35:06.012Z,14.07
2022-11-28T19:37:56.498Z,14.07
2022-11-28T19:40:46.734Z,13.35
2022-11-28T19:43:37.040Z,13.38
2022-11-28T19:46:31.882Z,13.75
2022-11-28T19:49:26.548Z,14.98
2022-11-28T19:52:17.013Z,18.42
2022-11-28T19:55:08.017Z,14.90
2022-11-28T19:57:58.487Z,13.52
2022-11-28T20:00:49.657Z,14.27
2022-11-28T20:03:43.759Z,13.90
2022-11-28T20:06:36.014Z,14.75
2022-11-28T20:09:26.969Z,14.20
2022-11-28T20:12:18.224Z,15.13
2022-11-28T20:15:13.769Z,15.48
2022-11-28T20:18:07.595Z,13.95
2022-11-28T20:21:19.314Z,17.17
2022-11-28T20:24:10.741Z,19.90
2022-11-28T20:27:02.243Z,21.67
2022-11-28T20:29:53.400Z,19.02
2022-11-28T20:32:43.654Z,16.27
2022-11-28T20:35:34.601Z,15.40
2022-11-28T20:38:24.980Z,16.40
2022-11-28T20:41:17.218Z,17.58
2022-11-28T20:44:07.817Z,19.75
2022-11-28T20:46:58.141Z,19.80
2022-11-28T20:49:48.309Z,19.58
2022-11-28T20:52:38.364Z,19.25
2022-11-28T20:55:28.575Z,19.85
2022-11-28T20:58:18.328Z,20.65
2022-11-28T21:01:12.830Z,19.30
2022-11-28T21:04:05.411Z,19.25
2022-11-28T21:06:55.832Z,17.27
2022-11-28T21:09:45.971Z,16.00
2022-11-28T21:12:36.207Z,16.55
2022-11-28T21:15:26.528Z,16.13
2022-11-28T21:18:17.165Z,16.13
2022-11-28T21:21:12.843Z,14.95
2022-11-28T21:24:08.310Z,15.45
2022-11-28T21:26:58.569Z,14.57
2022-11-28T21:29:54.861Z,15.40
2022-11-28T21:32:45.029Z,14.05
2022-11-28T21:35:35.769Z,15.45
2022-11-28T21:38:25.707Z,14.43
2022-11-28T21:41:15.693Z,15.43
2022-11-28T21:44:05.795Z,15.07
2022-11-28T21:46:56.549Z,16.63
2022-11-28T21:49:48.041Z,15.65
2022-11-28T21:52:38.612Z,16.33
2022-11-28T21:55:28.935Z,16.20
2022-11-28T21:58:25.138Z,16.00
2022-11-28T22:01:16.617Z,14.88
2022-11-28T22:04:06.945Z,16.50
2022-11-28T22:06:57.498Z,15.10
2022-11-28T22:09:48.020Z,14.60
2022-11-28T22:12:39.005Z,15.30
2022-11-28T22:15:29.654Z,14.60
2022-11-28T22:18:20.243Z,13.98
2022-11-28T22:21:43.267Z,15.70
2022-11-28T22:24:22.483Z,14.93
2022-11-28T22:27:12.932Z,15.93
2022-11-28T22:30:04.373Z,15.73
2022-11-28T22:32:54.654Z,16.02
2022-11-28T22:35:45.543Z,16.08
2022-11-28T22:38:37.611Z,15.20
2022-11-28T22:41:29.782Z,15.90
2022-11-28T22:44:23.786Z,15.20
2022-11-28T22:47:14.280Z,14.65
2022-11-28T22:50:05.400Z,15.32
2022-11-28T22:52:56.086Z,16.50
2022-11-28T22:55:46.084Z,17.15
2022-11-28T22:58:42.431Z,16.38
2022-11-28T23:01:34.415Z,17.58
2022-11-28T23:04:24.557Z,17.15
2022-11-28T23:07:15.907Z,17.05
2022-11-28T23:10:07.756Z,16.35
2022-11-28T23:12:57.931Z,16.38
2022-11-28T23:15:52.633Z,16.58
2022-11-28T23:18:44.834Z,16.90
2022-11-28T23:21:38.108Z,17.27
2022-11-28T23:24:28.696Z,17.27
2022-11-28T23:27:19.365Z,17.15
2022-11-28T23:30:10.094Z,16.30
2022-11-28T23:33:00.754Z,16.15
2022-11-28T23:35:51.025Z,17.92
2022-11-28T23:38:41.304Z,16.80
2022-11-28T23:41:31.883Z,17.52
2022-11-28T23:44:22.187Z,17.13
2022-11-28T23:47:12.520Z,16.83
2022-11-28T23:50:02.653Z,17.40
2022-11-28T23:52:53.354Z,16.30
2022-11-28T23:55:44.023Z,17.25
2022-11-28T23:58:35.079Z,18.50
